createdAt,value
2023-05-02T00:02:05.878Z,15.80
2023-05-02T00:05:09.835Z,14.00
2023-05-02T00:08:13.468Z,20.40
2023-05-02T00:11:16.799Z,19.00
2023-05-02T00:14:20.128Z,19.80
2023-05-02T00:17:24.851Z,20.40
2023-05-02T00:20:28.295Z,20.00
2023-05-02T00:23:31.531Z,17.00
2023-05-02T00:26:34.745Z,17.40
2023-05-02T00:29:38.011Z,17.60
2023-05-02T00:32:42.863Z,19.50
2023-05-02T00:35:46.324Z,19.40
2023-05-02T00:38:49.573Z,16.40
2023-05-02T00:41:58.230Z,18.00
2023-05-02T00:45:01.489Z,18.00
2023-05-02T00:48:07.210Z,20.00
2023-05-02T00:51:12.346Z,19.00
2023-05-02T00:54:15.920Z,15.00
2023-05-02T00:57:19.198Z,19.00
2023-05-02T01:00:24.039Z,18.00
2023-05-02T01:03:47.458Z,15.00
2023-05-02T01:07:07.485Z,21.50
2023-05-02T01:10:20.828Z,16.25
2023-05-02T01:13:30.398Z,18.00
2023-05-02T01:16:38.528Z,19.40
2023-05-02T01:19:54.146Z,16.40
2023-05-02T01:23:04.110Z,21.20
2023-05-02T01:26:18.763Z,16.75
2023-05-02T01:29:24.920Z,15.00
2023-05-02T01:32:31.132Z,20.25
2023-05-02T01:35:36.920Z,14.50
2023-05-02T01:38:41.235Z,19.50
2023-05-02T01:41:46.981Z,15.75
2023-05-02T01:44:54.918Z,16.20
2023-05-02T01:47:59.717Z,20.20
2023-05-02T01:51:06.712Z,16.60
2023-05-02T01:54:11.475Z,21.00
2023-05-02T01:57:19.061Z,20.00
2023-05-02T02:00:25.704Z,19.00
2023-05-02T02:03:32.764Z,17.00
2023-05-02T02:06:36.578Z,18.60
2023-05-02T02:09:40.514Z,18.00
2023-05-02T02:12:47.802Z,16.80
2023-05-02T02:15:59.011Z,18.00
2023-05-02T02:19:08.525Z,18.20
2023-05-02T02:22:16.529Z,18.00
2023-05-02T02:25:20.152Z,13.00
2023-05-02T02:28:23.774Z,19.40
2023-05-02T02:31:33.300Z,19.40
2023-05-02T02:34:36.805Z,20.00
2023-05-02T02:37:45.895Z,18.50
2023-05-02T02:40:56.242Z,18.25
2023-05-02T02:44:07.798Z,19.00
2023-05-02T02:47:19.341Z,18.75
2023-05-02T02:50:31.487Z,18.00
2023-05-02T02:53:46.837Z,18.00
2023-05-02T02:56:58.723Z,20.00
2023-05-02T03:00:08.600Z,18.50
2023-05-02T03:03:15.283Z,21.00
2023-05-02T03:06:19.524Z,16.00
2023-05-02T03:09:23.478Z,21.40
2023-05-02T03:12:27.785Z,18.00
2023-05-02T03:16:13.860Z,20.00
2023-05-02T03:19:18.992Z,20.00
2023-05-02T03:22:22.832Z,19.80
2023-05-02T03:25:26.482Z,18.00
2023-05-02T03:28:30.238Z,20.00
2023-05-02T03:31:33.910Z,18.00
2023-05-02T03:34:39.242Z,21.00
2023-05-02T03:37:42.552Z,17.00
2023-05-02T03:40:46.073Z,21.00
2023-05-02T03:43:49.718Z,19.40
2023-05-02T03:46:53.657Z,19.80
2023-05-02T03:49:59.561Z,17.00
2023-05-02T03:53:04.662Z,14.60
2023-05-02T03:56:20.971Z,14.00
2023-05-02T03:59:35.331Z,15.00
2023-05-02T04:02:47.090Z,19.00
2023-05-02T04:05:55.884Z,15.75
2023-05-02T04:08:59.743Z,18.40
2023-05-02T04:12:09.186Z,19.00
2023-05-02T04:15:16.545Z,16.80
2023-05-02T04:18:21.167Z,15.40
2023-05-02T04:21:26.219Z,17.20
2023-05-02T04:24:29.757Z,16.00
2023-05-02T04:27:34.734Z,21.00
2023-05-02T04:30:38.680Z,18.75
2023-05-02T04:33:46.143Z,22.40
2023-05-02T04:36:51.288Z,16.20
2023-05-02T04:39:58.586Z,17.75
2023-05-02T04:43:04.785Z,22.75
2023-05-02T04:46:16.027Z,19.00
2023-05-02T04:49:19.392Z,20.75
2023-05-02T04:52:24.693Z,19.20
2023-05-02T04:55:28.077Z,20.25
2023-05-02T04:58:31.640Z,19.80
2023-05-02T05:01:38.959Z,19.40
2023-05-02T05:04:45.830Z,18.00
2023-05-02T05:07:52.724Z,16.00
2023-05-02T05:10:58.103Z,16.60
2023-05-02T05:14:04.162Z,12.67
2023-05-02T05:17:09.930Z,10.00
2023-05-02T05:20:13.927Z,8.60
2023-05-02T05:23:20.003Z,6.20
2023-05-02T05:26:23.886Z,4.60
2023-05-02T05:29:28.358Z,6.50
2023-05-02T05:32:31.665Z,3.60
2023-05-02T05:35:34.972Z,5.50
2023-05-02T05:38:40.324Z,7.40
2023-05-02T05:41:45.652Z,7.00
2023-05-02T05:44:49.758Z,4.00
2023-05-02T05:47:55.885Z,5.33
2023-05-02T05:51:05.393Z,8.00
2023-05-02T05:54:10.480Z,7.00
2023-05-02T05:57:15.043Z,5.00
2023-05-02T06:00:20.205Z,4.00
2023-05-02T06:03:27.297Z,5.00
2023-05-02T06:06:31.753Z,4.00
2023-05-02T06:09:36.759Z,4.00
2023-05-02T06:12:40.373Z,5.50
2023-05-02T06:15:45.126Z,3.60
2023-05-02T06:18:48.813Z,4.00
2023-05-02T06:21:52.099Z,5.00
2023-05-02T06:24:57.201Z,5.80
2023-05-02T06:28:00.437Z,4.75
2023-05-02T06:31:05.245Z,3.40
2023-05-02T06:34:09.008Z,5.40
2023-05-02T06:37:12.237Z,5.00
2023-05-02T06:40:17.254Z,4.80
2023-05-02T06:43:20.904Z,3.00
2023-05-02T06:46:24.248Z,4.00
2023-05-02T06:49:28.226Z,4.60
2023-05-02T06:52:31.555Z,3.60
2023-05-02T06:55:36.225Z,5.25
2023-05-02T06:58:39.455Z,3.00
2023-05-02T07:01:42.732Z,4.00
2023-05-02T07:04:46.181Z,7.00
2023-05-02T07:07:49.519Z,5.20
2023-05-02T07:10:54.136Z,4.60
2023-05-02T07:13:57.905Z,4.00
2023-05-02T07:17:01.249Z,3.60
2023-05-02T07:20:05.251Z,6.00
2023-05-02T07:23:09.137Z,5.00
2023-05-02T07:26:14.009Z,4.80
2023-05-02T07:29:17.224Z,5.00
2023-05-02T07:32:21.967Z,4.40
2023-05-02T07:35:25.661Z,5.00
2023-05-02T07:38:28.966Z,7.00
2023-05-02T07:41:33.772Z,9.80
2023-05-02T07:44:37.020Z,9.60
2023-05-02T07:47:40.877Z,6.60
2023-05-02T07:50:44.128Z,8.80
2023-05-02T07:53:47.377Z,6.40
2023-05-02T07:56:52.028Z,10.00
2023-05-02T07:59:57.412Z,9.00
2023-05-02T08:03:00.894Z,7.00
2023-05-02T08:06:04.751Z,8.00
2023-05-02T08:09:09.329Z,9.00
2023-05-02T08:12:13.949Z,7.00
2023-05-02T08:15:17.256Z,5.00
2023-05-02T08:18:20.542Z,9.00
2023-05-02T08:21:23.835Z,6.40
2023-05-02T08:24:27.161Z,6.20
2023-05-02T08:27:31.962Z,7.00
2023-05-02T08:30:35.178Z,8.00
2023-05-02T08:33:38.524Z,7.00
2023-05-02T08:36:41.793Z,6.00
2023-05-02T08:39:45.020Z,7.00
2023-05-02T08:42:49.789Z,7.00
2023-05-02T08:45:55.550Z,8.00
2023-05-02T08:49:00.127Z,7.00
2023-05-02T08:52:04.457Z,7.40
2023-05-02T08:55:09.043Z,8.00
2023-05-02T08:58:15.393Z,6.00
2023-05-02T09:01:21.878Z,5.75
2023-05-02T09:04:32.091Z,6.00
2023-05-02T09:07:46.011Z,7.00
2023-05-02T09:10:49.318Z,9.00
2023-05-02T09:13:54.313Z,7.00
2023-05-02T09:17:01.105Z,8.60
2023-05-02T09:20:04.991Z,7.75
2023-05-02T09:23:08.736Z,7.67
2023-05-02T09:26:14.202Z,7.00
2023-05-02T09:29:22.025Z,10.00
2023-05-02T09:32:48.342Z,7.00
2023-05-02T09:35:55.814Z,6.40
2023-05-02T09:39:11.340Z,9.80
2023-05-02T09:42:14.589Z,6.00
2023-05-02T09:45:26.730Z,9.80
2023-05-02T09:48:31.230Z,8.40
2023-05-02T09:51:34.567Z,7.00
2023-05-02T09:54:38.064Z,6.00
2023-05-02T09:57:42.035Z,9.00
2023-05-02T10:00:47.711Z,6.40
2023-05-02T10:03:51.047Z,6.40
2023-05-02T10:06:56.242Z,7.00
2023-05-02T10:10:02.790Z,8.00
2023-05-02T10:13:07.509Z,6.50
2023-05-02T10:16:14.222Z,7.40
2023-05-02T10:19:25.041Z,6.40
2023-05-02T10:22:28.797Z,7.00
2023-05-02T10:25:34.123Z,11.00
2023-05-02T10:28:38.445Z,6.00
2023-05-02T10:31:44.969Z,7.00
2023-05-02T10:34:50.004Z,6.00
2023-05-02T10:37:54.133Z,6.60
2023-05-02T10:41:01.669Z,6.00
2023-05-02T10:44:07.929Z,7.00
2023-05-02T10:47:22.745Z,8.00
2023-05-02T10:50:44.266Z,7.60
2023-05-02T10:53:50.287Z,8.00
2023-05-02T10:57:07.983Z,9.00
2023-05-02T11:00:23.022Z,7.00
2023-05-02T11:03:59.327Z,7.00
2023-05-02T11:07:21.779Z,7.40
2023-05-02T11:10:29.252Z,7.60
2023-05-02T11:13:50.386Z,9.60
2023-05-02T11:17:07.764Z,9.00
2023-05-02T11:20:21.572Z,8.00
2023-05-02T11:23:28.054Z,5.00
2023-05-02T11:26:32.933Z,7.80
2023-05-02T11:29:54.503Z,8.00
2023-05-02T11:33:17.802Z,7.40
2023-05-02T11:36:30.970Z,7.40
2023-05-02T11:39:34.205Z,8.00
2023-05-02T11:42:37.726Z,9.00
2023-05-02T11:45:43.924Z,8.00
2023-05-02T11:48:47.238Z,7.00
2023-05-02T11:51:52.901Z,8.00
2023-05-02T11:54:57.071Z,7.50
2023-05-02T11:58:00.467Z,8.00
2023-05-02T12:01:13.833Z,7.00
2023-05-02T12:04:22.015Z,8.00
2023-05-02T12:07:37.986Z,7.00
2023-05-02T12:10:41.982Z,7.00
2023-05-02T12:13:49.986Z,7.00
2023-05-02T12:16:53.813Z,7.40
2023-05-02T12:19:57.284Z,9.00
2023-05-02T12:23:02.531Z,8.00
2023-05-02T12:26:18.328Z,6.00
2023-05-02T12:29:21.568Z,6.50
2023-05-02T12:32:32.829Z,8.00
2023-05-02T12:35:37.392Z,5.20
2023-05-02T12:38:42.046Z,8.50
2023-05-02T12:41:47.355Z,7.60
2023-05-02T12:44:53.326Z,7.00
2023-05-02T12:47:56.999Z,7.60
2023-05-02T12:51:00.296Z,10.00
2023-05-02T12:54:06.812Z,7.00
2023-05-02T12:57:10.190Z,10.00
2023-05-02T13:00:14.839Z,8.00
2023-05-02T13:03:18.279Z,8.00
2023-05-02T13:06:22.126Z,9.60
2023-05-02T13:09:26.897Z,7.00
2023-05-02T13:12:30.111Z,10.00
2023-05-02T13:15:33.420Z,9.00
2023-05-02T13:18:36.690Z,6.20
2023-05-02T13:21:39.946Z,8.00
2023-05-02T13:24:45.158Z,10.00
2023-05-02T13:27:50.094Z,6.40
2023-05-02T13:30:53.355Z,6.80
2023-05-02T13:33:56.666Z,10.50
2023-05-02T13:36:59.978Z,9.50
2023-05-02T13:40:05.672Z,10.00
2023-05-02T13:43:09.352Z,8.00
2023-05-02T13:46:12.740Z,7.00
2023-05-02T13:49:16.024Z,8.00
2023-05-02T13:52:19.306Z,9.00
2023-05-02T13:55:24.117Z,7.00
2023-05-02T13:58:27.443Z,7.00
2023-05-02T14:01:30.705Z,7.00
2023-05-02T14:04:34.048Z,7.33
2023-05-02T14:07:37.466Z,7.40
2023-05-02T14:10:42.181Z,7.00
2023-05-02T14:13:45.775Z,5.20
2023-05-02T14:16:50.362Z,7.00
2023-05-02T14:19:53.988Z,8.00
2023-05-02T14:22:57.228Z,6.00
2023-05-02T14:26:02.139Z,6.00
2023-05-02T14:29:05.415Z,6.00
2023-05-02T14:32:08.768Z,6.00
2023-05-02T14:35:12.344Z,6.40
2023-05-02T14:38:16.329Z,7.00
2023-05-02T14:41:21.646Z,8.50
2023-05-02T14:44:25.070Z,6.00
2023-05-02T14:47:30.909Z,5.00
2023-05-02T14:50:34.316Z,7.00
2023-05-02T14:53:37.601Z,4.60
2023-05-02T14:56:42.836Z,6.00
2023-05-02T14:59:46.398Z,4.00
2023-05-02T15:02:49.885Z,6.00
2023-05-02T15:05:53.357Z,8.00
2023-05-02T15:08:56.763Z,6.00
2023-05-02T15:12:02.925Z,6.00
2023-05-02T15:15:06.955Z,7.00
2023-05-02T15:18:10.209Z,6.00
2023-05-02T15:21:13.572Z,6.80
2023-05-02T15:24:16.765Z,7.60
2023-05-02T15:27:21.376Z,8.40
2023-05-02T15:30:24.532Z,7.80
2023-05-02T15:33:28.817Z,7.00
2023-05-02T15:36:32.857Z,9.40
2023-05-02T15:39:36.702Z,10.00
2023-05-02T15:42:41.730Z,10.60
2023-05-02T15:45:45.282Z,11.00
2023-05-02T15:48:48.551Z,12.00
2023-05-02T15:51:51.887Z,13.80
2023-05-02T15:54:56.179Z,11.80
2023-05-02T15:58:00.876Z,10.00
2023-05-02T16:01:04.382Z,12.00
2023-05-02T16:04:09.884Z,11.50
2023-05-02T16:07:13.332Z,13.00
2023-05-02T16:10:16.695Z,12.00
2023-05-02T16:13:22.033Z,12.60
2023-05-02T16:16:25.410Z,11.20
2023-05-02T16:19:28.689Z,11.00
2023-05-02T16:22:31.875Z,11.00
2023-05-02T16:25:35.161Z,14.00
2023-05-02T16:28:40.077Z,13.00
2023-05-02T16:31:44.658Z,12.00
2023-05-02T16:34:48.120Z,12.80
2023-05-02T16:37:51.847Z,12.00
2023-05-02T16:40:55.327Z,11.60
2023-05-02T16:43:59.939Z,11.00
2023-05-02T16:47:03.247Z,12.60
2023-05-02T16:50:07.707Z,13.00
2023-05-02T16:53:10.963Z,14.00
2023-05-02T16:56:14.538Z,10.50
2023-05-02T16:59:19.135Z,11.00
2023-05-02T17:02:22.741Z,12.00
2023-05-02T17:05:26.252Z,15.00
2023-05-02T17:08:29.834Z,13.60
2023-05-02T17:11:33.328Z,14.60
2023-05-02T17:14:39.685Z,15.00
2023-05-02T17:17:42.935Z,14.80
2023-05-02T17:20:46.886Z,16.60
2023-05-02T17:23:50.208Z,14.40
2023-05-02T17:26:54.064Z,16.67
2023-05-02T17:29:58.771Z,16.00
2023-05-02T17:33:02.586Z,12.80
2023-05-02T17:36:06.960Z,16.40
2023-05-02T17:39:11.666Z,15.00
2023-05-02T17:42:15.120Z,13.60
2023-05-02T17:45:19.750Z,13.20
2023-05-02T17:48:23.005Z,17.00
2023-05-02T17:51:26.295Z,17.00
2023-05-02T17:54:29.591Z,11.60
2023-05-02T17:57:33.084Z,13.00
2023-05-02T18:00:38.219Z,11.00
2023-05-02T18:03:42.002Z,11.00
2023-05-02T18:06:45.389Z,10.40
2023-05-02T18:09:48.721Z,9.00
2023-05-02T18:12:52.638Z,11.00
2023-05-02T18:16:01.592Z,11.00
2023-05-02T18:19:04.833Z,8.00
2023-05-02T18:22:08.670Z,8.00
2023-05-02T18:25:12.223Z,10.00
2023-05-02T18:28:15.616Z,12.00
2023-05-02T18:31:20.799Z,12.60
2023-05-02T18:34:24.302Z,11.00
2023-05-02T18:37:31.342Z,10.80
2023-05-02T18:40:34.656Z,8.00
2023-05-02T18:43:38.719Z,9.40
2023-05-02T18:46:43.689Z,8.00
2023-05-02T18:49:47.053Z,10.80
2023-05-02T18:52:50.354Z,10.20
2023-05-02T18:55:54.333Z,10.00
2023-05-02T18:59:00.927Z,9.80
2023-05-02T19:02:05.559Z,10.60
2023-05-02T19:05:09.823Z,12.00
2023-05-02T19:08:16.347Z,13.40
2023-05-02T19:11:20.147Z,12.00
2023-05-02T19:14:23.582Z,11.00
2023-05-02T19:17:28.237Z,13.00
2023-05-02T19:20:31.475Z,10.00
2023-05-02T19:23:35.675Z,12.00
2023-05-02T19:26:39.123Z,11.00
2023-05-02T19:29:42.545Z,13.20
2023-05-02T19:32:47.242Z,11.80
2023-05-02T19:35:51.264Z,11.00
2023-05-02T19:38:58.194Z,14.50
2023-05-02T19:42:03.304Z,11.20
2023-05-02T19:45:08.497Z,13.20
2023-05-02T19:48:14.621Z,13.60
2023-05-02T19:51:21.995Z,15.00
2023-05-02T19:54:25.375Z,14.00
2023-05-02T19:57:28.683Z,13.60
2023-05-02T20:00:32.015Z,14.80
2023-05-02T20:03:36.873Z,12.80
2023-05-02T20:06:40.395Z,15.75
2023-05-02T20:09:43.663Z,15.00
2023-05-02T20:12:47.148Z,14.80
2023-05-02T20:15:51.913Z,17.00
2023-05-02T20:18:56.958Z,14.60
2023-05-02T20:22:00.188Z,17.50
2023-05-02T20:25:03.740Z,16.00
2023-05-02T20:28:07.029Z,17.60
2023-05-02T20:31:10.260Z,19.00
2023-05-02T20:34:14.866Z,17.60
2023-05-02T20:37:18.196Z,18.80
2023-05-02T20:40:22.537Z,17.00
2023-05-02T20:43:29.098Z,18.00
2023-05-02T20:46:32.660Z,17.40
2023-05-02T20:49:37.384Z,18.00
2023-05-02T20:52:40.782Z,19.00
2023-05-02T20:55:44.054Z,14.00
2023-05-02T20:58:49.334Z,18.00
2023-05-02T21:01:53.103Z,19.50
2023-05-02T21:04:58.087Z,19.00
2023-05-02T21:08:01.364Z,18.40
2023-05-02T21:11:13.435Z,16.40
2023-05-02T21:14:17.555Z,18.40
2023-05-02T21:17:21.720Z,20.75
2023-05-02T21:20:27.784Z,18.25
2023-05-02T21:23:30.975Z,20.40
2023-05-02T21:26:34.453Z,24.60
2023-05-02T21:29:37.701Z,19.00
2023-05-02T21:32:42.123Z,17.60
2023-05-02T21:35:46.906Z,16.00
2023-05-02T21:38:50.460Z,19.00
2023-05-02T21:41:53.653Z,17.00
2023-05-02T21:44:56.861Z,16.80
2023-05-02T21:48:01.436Z,22.00
2023-05-02T21:51:08.983Z,18.40
2023-05-02T21:54:12.253Z,15.50
2023-05-02T21:57:15.427Z,18.00
2023-05-02T22:00:18.957Z,21.60
2023-05-02T22:03:23.485Z,19.00
2023-05-02T22:06:51.842Z,19.00
2023-05-02T22:09:55.283Z,19.50
2023-05-02T22:12:59.001Z,19.50
2023-05-02T22:16:02.275Z,18.20
2023-05-02T22:19:05.760Z,18.20
2023-05-02T22:22:11.192Z,17.00
2023-05-02T22:25:14.949Z,19.00
2023-05-02T22:28:18.173Z,18.60
2023-05-02T22:31:21.563Z,18.50
2023-05-02T22:34:24.893Z,20.40
2023-05-02T22:37:30.128Z,19.60
2023-05-02T22:40:33.328Z,17.40
2023-05-02T22:43:37.007Z,19.00
2023-05-02T22:46:40.227Z,17.25
2023-05-02T22:49:44.708Z,18.20
2023-05-02T22:52:51.172Z,19.00
2023-05-02T22:55:54.892Z,21.25
2023-05-02T22:58:58.188Z,21.75
2023-05-02T23:02:01.542Z,24.60
2023-05-02T23:05:05.250Z,22.60
2023-05-02T23:08:09.845Z,19.00
2023-05-02T23:11:13.085Z,16.60
2023-05-02T23:14:16.335Z,18.00
2023-05-02T23:17:19.773Z,20.00
2023-05-02T23:20:23.457Z,22.40
2023-05-02T23:23:28.120Z,19.60
2023-05-02T23:26:31.344Z,19.40
2023-05-02T23:29:34.618Z,18.00
2023-05-02T23:32:37.992Z,17.00
2023-05-02T23:35:41.681Z,16.00
2023-05-02T23:38:46.509Z,16.25
2023-05-02T23:41:49.784Z,16.60
2023-05-02T23:44:53.799Z,17.50
2023-05-02T23:47:57.123Z,16.00
2023-05-02T23:51:00.645Z,16.00
2023-05-02T23:54:05.468Z,19.00
2023-05-02T23:57:09.357Z,21.00
